createdAt,value
2022-12-27T00:00:55.530Z,39.84
2022-12-27T00:03:22.627Z,39.65
2022-12-27T00:05:49.317Z,39.84
2022-12-27T00:08:18.854Z,39.80
2022-12-27T00:10:45.426Z,39.66
2022-12-27T00:13:12.118Z,39.57
2022-12-27T00:15:38.671Z,39.48
2022-12-27T00:18:05.332Z,39.67
2022-12-27T00:20:31.878Z,39.46
2022-12-27T00:23:00.994Z,39.37
2022-12-27T00:25:28.207Z,39.60
2022-12-27T00:27:55.228Z,39.30
2022-12-27T00:30:21.832Z,39.37
2022-12-27T00:32:48.461Z,39.36
2022-12-27T00:35:15.113Z,39.18
2022-12-27T00:37:41.706Z,39.43
2022-12-27T00:42:21.681Z,39.23
2022-12-27T00:44:48.309Z,39.23
2022-12-27T00:47:14.887Z,39.20
2022-12-27T00:49:41.499Z,38.94
2022-12-27T00:52:08.065Z,39.11
2022-12-27T00:54:34.995Z,39.13
2022-12-27T00:57:01.563Z,39.00
2022-12-27T00:59:28.211Z,39.14
2022-12-27T01:01:54.858Z,39.03
2022-12-27T01:04:21.554Z,38.78
2022-12-27T01:06:48.036Z,38.81
2022-12-27T01:09:17.440Z,38.82
2022-12-27T01:14:02.320Z,38.92
2022-12-27T01:16:30.903Z,38.65
2022-12-27T01:19:00.873Z,38.80
2022-12-27T01:21:30.653Z,38.79
2022-12-27T01:23:58.196Z,38.72
2022-12-27T01:26:25.441Z,38.69
2022-12-27T01:28:53.583Z,38.77
2022-12-27T01:31:26.040Z,38.37
2022-12-27T01:34:00.434Z,38.38
2022-12-27T01:36:29.058Z,38.63
2022-12-27T01:38:57.648Z,38.49
2022-12-27T01:41:44.290Z,38.57
2022-12-27T01:44:39.471Z,38.61
2022-12-27T01:47:34.051Z,38.49
2022-12-27T01:50:09.678Z,38.31
2022-12-27T01:52:46.278Z,38.51
2022-12-27T01:55:23.372Z,38.37
2022-12-27T01:57:53.096Z,38.51
2022-12-27T02:02:53.144Z,38.71
2022-12-27T02:05:22.130Z,38.43
2022-12-27T02:08:19.580Z,38.33
2022-12-27T02:10:46.622Z,38.26
2022-12-27T02:13:16.111Z,38.20
2022-12-27T02:15:42.870Z,38.14
2022-12-27T02:18:09.502Z,38.33
2022-12-27T02:21:05.946Z,38.06
2022-12-27T02:23:54.202Z,38.12
2022-12-27T02:26:33.185Z,38.04
2022-12-27T02:29:02.778Z,37.99
2022-12-27T02:31:58.709Z,37.91
2022-12-27T02:34:30.420Z,38.23
2022-12-27T02:37:03.143Z,38.13
2022-12-27T02:39:36.074Z,38.22
2022-12-27T02:42:22.816Z,38.18
2022-12-27T02:45:07.971Z,38.14
2022-12-27T02:47:54.586Z,38.10
2022-12-27T02:50:40.083Z,37.87
2022-12-27T02:53:17.972Z,37.91
2022-12-27T02:58:52.014Z,37.94
2022-12-27T03:01:43.345Z,37.99
2022-12-27T03:04:32.705Z,37.76
2022-12-27T03:07:08.174Z,37.82
2022-12-27T03:10:19.064Z,37.92
2022-12-27T03:13:35.455Z,37.77
2022-12-27T03:16:17.864Z,37.71
2022-12-27T03:19:09.807Z,37.72
2022-12-27T03:22:13.383Z,37.78
2022-12-27T03:26:58.073Z,37.45
2022-12-27T03:29:44.101Z,37.63
2022-12-27T03:32:32.773Z,37.55
2022-12-27T03:35:13.076Z,37.72
2022-12-27T03:38:01.734Z,37.47
2022-12-27T03:41:01.540Z,37.51
2022-12-27T03:43:28.768Z,37.67
2022-12-27T03:46:36.440Z,37.60
2022-12-27T03:49:32.288Z,37.44
2022-12-27T03:52:07.720Z,37.55
2022-12-27T03:54:38.181Z,37.39
2022-12-27T03:57:11.689Z,37.57
2022-12-27T03:59:39.090Z,37.57
2022-12-27T04:02:08.547Z,37.31
2022-12-27T04:04:36.388Z,37.46
2022-12-27T04:07:03.773Z,37.46
2022-12-27T04:09:48.679Z,37.37
2022-12-27T04:12:34.151Z,37.46
2022-12-27T04:15:19.647Z,37.33
2022-12-27T04:18:04.920Z,37.33
2022-12-27T04:20:50.762Z,37.37
2022-12-27T04:23:36.124Z,37.21
2022-12-27T04:26:21.328Z,37.41
2022-12-27T04:29:06.313Z,37.18
2022-12-27T04:31:51.824Z,37.41
2022-12-27T04:34:37.045Z,37.09
2022-12-27T04:37:04.084Z,37.35
2022-12-27T04:39:30.980Z,37.06
2022-12-27T04:42:16.093Z,37.49
2022-12-27T04:45:01.255Z,37.13
2022-12-27T04:47:46.561Z,37.18
2022-12-27T04:50:41.032Z,36.94
2022-12-27T04:53:31.071Z,36.94
2022-12-27T04:55:57.874Z,36.74
2022-12-27T04:58:25.301Z,36.72
2022-12-27T05:01:14.348Z,36.93
2022-12-27T05:03:42.081Z,36.71
2022-12-27T05:06:08.798Z,36.84
2022-12-27T05:08:54.693Z,36.66
2022-12-27T05:11:39.911Z,36.64
2022-12-27T05:14:11.278Z,36.63
2022-12-27T05:16:41.372Z,36.84
2022-12-27T05:19:12.912Z,36.86
2022-12-27T05:22:01.794Z,36.56
2022-12-27T05:24:48.347Z,36.45
2022-12-27T05:27:15.538Z,36.68
2022-12-27T05:29:42.101Z,36.35
2022-12-27T05:32:13.006Z,36.66
2022-12-27T05:34:40.414Z,36.70
2022-12-27T05:37:06.948Z,36.45
2022-12-27T05:39:33.569Z,36.31
2022-12-27T05:42:00.150Z,36.25
2022-12-27T05:44:26.960Z,36.27
2022-12-27T05:46:56.466Z,36.13
2022-12-27T05:49:23.307Z,36.26
2022-12-27T05:51:49.846Z,36.41
2022-12-27T05:54:16.712Z,36.08
2022-12-27T05:56:43.277Z,36.01
2022-12-27T05:59:09.789Z,36.32
2022-12-27T06:01:36.492Z,36.12
2022-12-27T06:04:03.161Z,36.44
2022-12-27T06:06:29.669Z,36.31
2022-12-27T06:08:56.242Z,36.07
2022-12-27T06:11:22.801Z,36.11
2022-12-27T06:13:53.688Z,35.55
2022-12-27T06:16:22.464Z,35.48
2022-12-27T06:18:49.428Z,35.61
2022-12-27T06:21:20.966Z,35.49
2022-12-27T06:23:48.835Z,35.43
2022-12-27T06:26:17.055Z,35.28
2022-12-27T06:28:43.825Z,35.67
2022-12-27T06:31:11.125Z,35.36
2022-12-27T06:33:37.865Z,35.70
2022-12-27T06:36:13.497Z,35.68
2022-12-27T06:38:40.953Z,35.75
2022-12-27T06:41:10.706Z,35.65
2022-12-27T06:43:38.493Z,35.72
2022-12-27T06:46:15.215Z,35.75
2022-12-27T06:48:46.618Z,35.59
2022-12-27T06:51:14.321Z,35.69
2022-12-27T06:53:41.716Z,35.26
2022-12-27T06:56:11.361Z,35.28
2022-12-27T06:58:38.737Z,35.32
2022-12-27T07:01:18.018Z,35.56
2022-12-27T07:03:49.418Z,35.71
2022-12-27T07:06:16.240Z,35.52
2022-12-27T07:08:43.007Z,35.61
2022-12-27T07:11:11.819Z,35.43
2022-12-27T07:13:40.818Z,35.49
2022-12-27T07:16:09.702Z,35.27
2022-12-27T07:18:36.446Z,35.50
2022-12-27T07:21:08.723Z,35.84
2022-12-27T07:23:38.536Z,35.70
2022-12-27T07:26:10.710Z,36.04
2022-12-27T07:28:37.858Z,36.11
2022-12-27T07:31:09.391Z,35.93
2022-12-27T07:33:37.110Z,35.93
2022-12-27T07:36:05.446Z,36.41
2022-12-27T07:38:32.026Z,36.36
2022-12-27T07:41:00.174Z,36.37
2022-12-27T07:43:30.664Z,36.25
2022-12-27T07:46:03.916Z,36.34
2022-12-27T07:48:30.560Z,36.56
2022-12-27T07:50:58.118Z,36.53
2022-12-27T07:53:24.675Z,36.50
2022-12-27T07:55:53.718Z,36.37
2022-12-27T07:58:20.927Z,36.35
2022-12-27T08:00:49.612Z,36.59
2022-12-27T08:03:18.123Z,37.40
2022-12-27T08:05:46.803Z,37.84
2022-12-27T08:08:19.567Z,38.26
2022-12-27T08:10:46.122Z,38.44
2022-12-27T08:13:12.610Z,38.99
2022-12-27T08:15:42.554Z,39.01
2022-12-27T08:18:09.974Z,39.30
2022-12-27T08:20:36.857Z,39.65
2022-12-27T08:23:03.397Z,39.53
2022-12-27T08:25:30.834Z,39.59
2022-12-27T08:28:06.093Z,40.00
2022-12-27T08:30:33.089Z,40.26
2022-12-27T08:33:01.456Z,40.26
2022-12-27T08:35:54.799Z,40.49
2022-12-27T08:38:15.791Z,40.30
2022-12-27T08:40:44.970Z,40.89
2022-12-27T08:43:12.079Z,40.86
2022-12-27T08:45:39.971Z,40.60
2022-12-27T08:48:06.952Z,40.08
2022-12-27T08:50:34.013Z,39.38
2022-12-27T08:53:02.567Z,39.23
2022-12-27T08:55:30.439Z,38.81
2022-12-27T08:58:01.093Z,38.72
2022-12-27T09:00:28.338Z,38.11
2022-12-27T09:02:58.186Z,38.29
2022-12-27T09:05:26.724Z,38.73
2022-12-27T09:07:53.541Z,39.06
2022-12-27T09:10:21.503Z,39.55
2022-12-27T09:12:48.157Z,40.03
2022-12-27T09:15:14.737Z,40.59
2022-12-27T09:17:41.875Z,40.43
2022-12-27T09:20:09.233Z,41.05
2022-12-27T09:22:35.954Z,41.18
2022-12-27T09:25:02.707Z,41.33
2022-12-27T09:27:29.422Z,41.24
2022-12-27T09:29:55.967Z,41.37
2022-12-27T09:32:27.331Z,41.33
2022-12-27T09:34:56.494Z,41.23
2022-12-27T09:37:23.019Z,40.85
2022-12-27T09:39:49.956Z,40.97
2022-12-27T09:42:53.490Z,41.16
2022-12-27T09:45:37.263Z,41.31
2022-12-27T09:48:12.087Z,41.30
2022-12-27T09:51:25.148Z,41.80
2022-12-27T09:53:51.572Z,41.82
2022-12-27T09:56:40.568Z,41.66
2022-12-27T09:59:23.901Z,41.86
2022-12-27T10:01:50.948Z,42.06
2022-12-27T10:04:18.982Z,42.42
2022-12-27T10:06:45.595Z,42.29
2022-12-27T10:09:48.563Z,42.13
2022-12-27T10:12:31.624Z,42.18
2022-12-27T10:15:23.200Z,42.07
2022-12-27T10:18:14.771Z,42.27
2022-12-27T10:20:47.535Z,42.45
2022-12-27T10:23:20.503Z,39.92
2022-12-27T10:25:47.390Z,36.68
2022-12-27T10:28:22.861Z,35.98
2022-12-27T10:30:49.553Z,35.75
2022-12-27T10:33:30.414Z,35.31
2022-12-27T10:35:58.162Z,35.53
2022-12-27T10:38:25.260Z,35.72
2022-12-27T10:41:02.434Z,35.80
2022-12-27T10:43:36.489Z,35.98
2022-12-27T10:46:32.206Z,36.32
2022-12-27T10:49:21.305Z,36.51
2022-12-27T10:51:49.850Z,36.55
2022-12-27T10:54:23.198Z,36.57
2022-12-27T10:56:50.529Z,36.74
2022-12-27T10:59:19.878Z,36.91
2022-12-27T11:02:08.337Z,37.11
2022-12-27T11:04:35.005Z,37.04
2022-12-27T11:07:02.096Z,36.94
2022-12-27T11:09:34.504Z,37.00
2022-12-27T11:12:24.523Z,36.97
2022-12-27T11:15:04.364Z,37.22
2022-12-27T11:17:40.708Z,37.11
2022-12-27T11:20:21.404Z,37.23
2022-12-27T11:22:59.217Z,37.28
2022-12-27T11:25:28.060Z,37.16
2022-12-27T11:27:58.887Z,37.31
2022-12-27T11:30:31.542Z,37.11
2022-12-27T11:33:05.690Z,36.93
2022-12-27T11:35:36.586Z,36.55
2022-12-27T11:38:03.689Z,36.50
2022-12-27T11:40:34.661Z,36.63
2022-12-27T11:43:12.495Z,36.35
2022-12-27T11:45:44.295Z,36.48
2022-12-27T11:48:22.986Z,36.19
2022-12-27T11:51:01.801Z,36.08
2022-12-27T11:53:56.266Z,36.05
2022-12-27T11:56:29.370Z,35.86
2022-12-27T11:59:20.925Z,35.90
2022-12-27T12:02:18.827Z,35.73
2022-12-27T12:05:07.424Z,35.50
2022-12-27T12:07:36.848Z,35.85
2022-12-27T12:10:28.169Z,35.34
2022-12-27T12:13:30.180Z,35.66
2022-12-27T12:16:09.000Z,35.78
2022-12-27T12:19:07.495Z,35.91
2022-12-27T12:21:50.209Z,36.01
2022-12-27T12:24:48.865Z,35.74
2022-12-27T12:27:22.215Z,36.02
2022-12-27T12:30:07.389Z,36.32
2022-12-27T12:32:58.841Z,36.21
2022-12-27T12:35:39.972Z,36.35
2022-12-27T12:38:34.022Z,36.78
2022-12-27T12:41:13.230Z,36.85
2022-12-27T12:44:03.901Z,36.83
2022-12-27T12:46:37.712Z,36.88
2022-12-27T12:49:33.922Z,36.93
2022-12-27T12:52:15.764Z,36.97
2022-12-27T12:55:01.025Z,37.09
2022-12-27T12:57:42.685Z,36.88
2022-12-27T13:00:51.086Z,37.04
2022-12-27T13:03:39.264Z,37.02
2022-12-27T13:06:31.937Z,37.23
2022-12-27T13:09:03.619Z,37.01
2022-12-27T13:11:41.949Z,37.00
2022-12-27T13:14:32.547Z,36.85
2022-12-27T13:17:08.585Z,37.04
2022-12-27T13:19:37.956Z,36.84
2022-12-27T13:22:13.521Z,36.94
2022-12-27T13:24:52.364Z,36.93
2022-12-27T13:27:35.589Z,37.24
2022-12-27T13:30:24.178Z,37.22
2022-12-27T13:33:00.129Z,37.17
2022-12-27T13:36:04.954Z,37.09
2022-12-27T13:38:48.656Z,37.27
2022-12-27T13:41:28.021Z,37.39
2022-12-27T13:44:10.088Z,37.42
2022-12-27T13:46:54.058Z,37.26
2022-12-27T13:49:26.519Z,37.16
2022-12-27T13:52:00.683Z,37.28
2022-12-27T13:55:02.485Z,37.28
2022-12-27T13:57:58.420Z,37.21
2022-12-27T14:00:31.958Z,36.97
2022-12-27T14:03:22.397Z,37.08
2022-12-27T14:05:54.806Z,37.05
2022-12-27T14:08:56.963Z,37.08
2022-12-27T14:11:41.726Z,36.79
2022-12-27T14:14:12.396Z,36.83
2022-12-27T14:16:59.051Z,36.92
2022-12-27T14:20:01.696Z,36.86
2022-12-27T14:22:55.764Z,36.81
2022-12-27T14:26:07.129Z,36.51
2022-12-27T14:29:12.263Z,36.57
2022-12-27T14:32:07.237Z,36.35
2022-12-27T14:34:59.818Z,36.82
2022-12-27T14:38:04.588Z,36.58
2022-12-27T14:41:06.843Z,36.34
2022-12-27T14:43:51.649Z,36.44
2022-12-27T14:46:48.654Z,37.04
2022-12-27T14:49:33.523Z,37.05
2022-12-27T14:52:22.177Z,37.25
2022-12-27T14:55:23.864Z,37.09
2022-12-27T14:58:24.217Z,37.56
2022-12-27T15:01:04.870Z,37.74
2022-12-27T15:03:43.656Z,37.58
2022-12-27T15:06:26.591Z,37.64
2022-12-27T15:09:13.636Z,37.79
2022-12-27T15:12:24.573Z,37.68
2022-12-27T15:15:09.991Z,37.89
2022-12-27T15:17:55.180Z,38.04
2022-12-27T15:20:44.793Z,38.40
2022-12-27T15:23:26.507Z,38.73
2022-12-27T15:26:30.624Z,38.87
2022-12-27T15:29:26.898Z,38.79
2022-12-27T15:32:24.854Z,38.88
2022-12-27T15:34:54.483Z,39.12
2022-12-27T15:37:45.686Z,39.58
2022-12-27T15:40:32.526Z,39.51
2022-12-27T15:43:08.718Z,39.50
2022-12-27T15:45:44.343Z,39.64
2022-12-27T15:48:35.246Z,39.67
2022-12-27T15:51:26.988Z,39.35
2022-12-27T15:54:19.583Z,38.96
2022-12-27T15:56:49.376Z,39.27
2022-12-27T15:59:37.663Z,39.28
2022-12-27T16:02:54.137Z,38.84
2022-12-27T16:05:20.813Z,38.71
2022-12-27T16:07:50.157Z,39.26
2022-12-27T16:10:30.386Z,39.18
2022-12-27T16:13:23.098Z,39.07
2022-12-27T16:15:52.144Z,39.01
2022-12-27T16:18:22.305Z,39.07
2022-12-27T16:20:58.450Z,39.12
2022-12-27T16:23:29.511Z,38.90
2022-12-27T16:26:08.087Z,38.70
2022-12-27T16:28:37.300Z,38.73
2022-12-27T16:31:12.396Z,38.53
2022-12-27T16:33:40.995Z,38.44
2022-12-27T16:36:19.718Z,38.15
2022-12-27T16:39:14.141Z,38.15
2022-12-27T16:41:49.734Z,37.97
2022-12-27T16:44:19.113Z,38.04
2022-12-27T16:46:54.992Z,37.81
2022-12-27T16:49:51.275Z,38.00
2022-12-27T16:52:30.029Z,38.26
2022-12-27T16:55:17.723Z,38.21
2022-12-27T16:57:49.206Z,37.88
2022-12-27T17:00:42.298Z,37.61
2022-12-27T17:03:20.938Z,37.46
2022-12-27T17:06:30.220Z,37.27
2022-12-27T17:08:39.317Z,37.05
2022-12-27T17:11:30.696Z,36.88
2022-12-27T17:14:12.585Z,37.35
2022-12-27T17:16:48.035Z,37.59
2022-12-27T17:19:20.096Z,37.68
2022-12-27T17:21:53.609Z,37.39
2022-12-27T17:24:23.105Z,37.16
2022-12-27T17:26:55.605Z,37.23
2022-12-27T17:29:51.539Z,37.32
2022-12-27T17:32:30.418Z,37.38
2022-12-27T17:35:30.349Z,37.39
2022-12-27T17:38:15.731Z,37.48
2022-12-27T17:41:11.847Z,37.22
2022-12-27T17:44:06.141Z,37.53
2022-12-27T17:46:50.887Z,37.58
2022-12-27T17:49:17.889Z,37.74
2022-12-27T17:52:05.731Z,37.66
2022-12-27T17:54:50.910Z,38.27
2022-12-27T17:57:54.679Z,38.19
2022-12-27T18:00:23.825Z,38.16
2022-12-27T18:02:52.140Z,38.26
2022-12-27T18:05:27.220Z,38.39
2022-12-27T18:08:07.054Z,38.05
2022-12-27T18:10:36.622Z,38.41
2022-12-27T18:13:06.670Z,38.11
2022-12-27T18:15:43.021Z,38.25
2022-12-27T18:18:16.113Z,38.52
2022-12-27T18:20:43.414Z,38.17
2022-12-27T18:23:11.845Z,38.12
2022-12-27T18:25:44.472Z,37.84
2022-12-27T18:28:34.182Z,37.74
2022-12-27T18:31:38.067Z,37.13
2022-12-27T18:34:28.340Z,37.03
2022-12-27T18:37:07.256Z,36.92
2022-12-27T18:39:37.021Z,36.76
2022-12-27T18:42:20.024Z,36.76
2022-12-27T18:44:55.184Z,36.80
2022-12-27T18:47:24.904Z,36.55
2022-12-27T18:50:00.092Z,36.38
2022-12-27T18:52:36.017Z,36.42
2022-12-27T18:55:16.243Z,36.01
2022-12-27T18:57:46.699Z,36.03
2022-12-27T19:00:24.338Z,36.02
2022-12-27T19:02:52.739Z,35.77
2022-12-27T19:05:19.318Z,35.90
2022-12-27T19:08:15.980Z,35.76
2022-12-27T19:10:51.716Z,35.53
2022-12-27T19:13:26.601Z,35.64
2022-12-27T19:15:55.492Z,35.66
2022-12-27T19:18:42.665Z,35.45
2022-12-27T19:21:23.103Z,35.52
2022-12-27T19:23:50.353Z,35.79
2022-12-27T19:26:17.173Z,35.82
2022-12-27T19:28:46.540Z,35.71
2022-12-27T19:31:18.525Z,35.59
2022-12-27T19:33:51.062Z,35.67
2022-12-27T19:36:25.544Z,35.43
2022-12-27T19:38:58.137Z,35.55
2022-12-27T19:41:25.158Z,36.04
2022-12-27T19:43:54.532Z,36.54
2022-12-27T19:46:27.109Z,36.96
2022-12-27T19:54:14.775Z,37.34
2022-12-27T19:56:41.849Z,37.53
2022-12-27T19:59:15.701Z,37.72
2022-12-27T20:01:42.759Z,37.60
2022-12-27T20:04:11.728Z,37.21
2022-12-27T20:06:38.663Z,36.99
2022-12-27T20:09:07.815Z,36.81
2022-12-27T20:11:34.983Z,36.78
2022-12-27T20:14:01.706Z,36.49
2022-12-27T20:16:30.486Z,36.61
2022-12-27T20:19:08.832Z,36.51
2022-12-27T20:21:35.856Z,36.45
2022-12-27T20:24:02.689Z,36.41
2022-12-27T20:26:32.289Z,36.00
2022-12-27T20:29:02.336Z,35.90
2022-12-27T20:31:29.151Z,36.01
2022-12-27T20:33:59.436Z,35.94
2022-12-27T20:36:29.390Z,35.83
2022-12-27T20:39:04.619Z,35.58
2022-12-27T20:41:31.365Z,35.67
2022-12-27T20:44:04.761Z,35.59
2022-12-27T20:46:31.645Z,35.30
2022-12-27T20:51:34.639Z,35.29
2022-12-27T20:54:13.064Z,35.16
2022-12-27T20:56:50.116Z,35.07
2022-12-27T20:59:28.523Z,34.99
2022-12-27T21:02:11.535Z,34.81
2022-12-27T21:04:38.439Z,34.81
2022-12-27T21:07:05.842Z,34.57
2022-12-27T21:09:34.040Z,34.82
2022-12-27T21:12:00.721Z,34.80
2022-12-27T21:14:34.079Z,34.42
2022-12-27T21:17:01.010Z,34.51
2022-12-27T21:19:27.683Z,34.47
2022-12-27T21:21:54.475Z,34.57
2022-12-27T21:24:21.117Z,34.66
2022-12-27T21:26:53.268Z,34.37
2022-12-27T21:29:22.988Z,34.38
2022-12-27T21:31:49.657Z,34.62
2022-12-27T21:34:16.895Z,34.49
2022-12-27T21:36:43.663Z,34.42
2022-12-27T21:39:10.759Z,34.31
2022-12-27T21:41:39.898Z,34.28
2022-12-27T21:44:09.652Z,34.17
2022-12-27T21:46:44.833Z,34.11
2022-12-27T21:49:18.875Z,34.57
2022-12-27T21:51:45.595Z,34.59
2022-12-27T21:54:14.118Z,34.65
2022-12-27T21:56:40.957Z,34.32
2022-12-27T21:59:13.705Z,34.75
2022-12-27T22:01:50.535Z,34.69
2022-12-27T22:04:20.992Z,34.74
2022-12-27T22:06:48.152Z,34.81
2022-12-27T22:09:19.138Z,34.82
2022-12-27T22:11:46.346Z,35.19
2022-12-27T22:14:12.968Z,35.24
2022-12-27T22:16:40.116Z,35.59
2022-12-27T22:19:11.920Z,35.60
2022-12-27T22:21:42.095Z,35.36
2022-12-27T22:24:12.689Z,35.51
2022-12-27T22:26:39.513Z,35.56
2022-12-27T22:29:07.893Z,35.71
2022-12-27T22:31:36.621Z,35.42
2022-12-27T22:34:06.543Z,35.53
2022-12-27T22:36:37.210Z,35.72
2022-12-27T22:39:04.393Z,35.54
2022-12-27T22:41:36.061Z,35.89
2022-12-27T22:44:08.632Z,35.96
2022-12-27T22:49:22.248Z,35.80
2022-12-27T22:51:48.799Z,35.89
2022-12-27T22:54:15.402Z,35.93
2022-12-27T22:56:42.793Z,36.10
2022-12-27T22:59:17.291Z,36.16
2022-12-27T23:01:46.089Z,36.11
2022-12-27T23:04:14.127Z,36.53
2022-12-27T23:06:41.470Z,36.23
2022-12-27T23:11:32.730Z,36.44
2022-12-27T23:13:59.286Z,36.71
2022-12-27T23:16:26.675Z,36.51
2022-12-27T23:18:53.487Z,36.83
2022-12-27T23:21:24.156Z,36.64
2022-12-27T23:23:52.490Z,37.12
2022-12-27T23:26:22.140Z,36.92
2022-12-27T23:28:51.071Z,36.92
2022-12-27T23:31:18.924Z,36.87
2022-12-27T23:33:45.730Z,37.05
2022-12-27T23:36:13.418Z,37.14
2022-12-27T23:38:41.521Z,37.29
2022-12-27T23:41:08.950Z,37.35
2022-12-27T23:46:15.949Z,37.41
2022-12-27T23:48:44.364Z,37.49
2022-12-27T23:51:12.743Z,37.51
2022-12-27T23:53:39.503Z,37.41
2022-12-27T23:56:14.656Z,37.34
2022-12-27T23:58:42.012Z,37.14
